sensor_id;sensor_type;location;lat;lon;timestamp;P1;durP1;ratioP1;P2;durP2;ratioP2
82505;SDS011;72144;51.444;10.560;2024-02-14T00:00:06;6.10;;;3.00;;
82505;SDS011;72144;51.444;10.560;2024-02-14T00:02:35;4.10;;;1.40;;
82505;SDS011;72144;51.444;10.560;2024-02-14T00:05:01;6.75;;;2.75;;
82505;SDS011;72144;51.444;10.560;2024-02-14T00:07:28;3.30;;;1.95;;
82505;SDS011;72144;51.444;10.560;2024-02-14T00:09:53;6.47;;;2.65;;
82505;SDS011;72144;51.444;10.560;2024-02-14T00:12:19;2.85;;;1.50;;
82505;SDS011;72144;51.444;10.560;2024-02-14T00:14:44;3.40;;;2.22;;
82505;SDS011;72144;51.444;10.560;2024-02-14T00:17:10;4.32;;;2.20;;
82505;SDS011;72144;51.444;10.560;2024-02-14T00:19:35;5.35;;;3.20;;
82505;SDS011;72144;51.444;10.560;2024-02-14T00:22:01;3.72;;;2.10;;
82505;SDS011;72144;51.444;10.560;2024-02-14T00:24:26;6.57;;;2.53;;
82505;SDS011;72144;51.444;10.560;2024-02-14T00:26:54;6.18;;;2.58;;
82505;SDS011;72144;51.444;10.560;2024-02-14T00:29:20;5.95;;;3.00;;
82505;SDS011;72144;51.444;10.560;2024-02-14T00:31:46;3.70;;;2.00;;
82505;SDS011;72144;51.444;10.560;2024-02-14T00:34:11;4.40;;;2.60;;
82505;SDS011;72144;51.444;10.560;2024-02-14T00:36:37;3.33;;;2.47;;
82505;SDS011;72144;51.444;10.560;2024-02-14T00:39:03;4.88;;;2.20;;
82505;SDS011;72144;51.444;10.560;2024-02-14T00:41:28;3.78;;;2.47;;
82505;SDS011;72144;51.444;10.560;2024-02-14T00:43:55;5.45;;;2.60;;
82505;SDS011;72144;51.444;10.560;2024-02-14T00:46:21;3.65;;;2.05;;
82505;SDS011;72144;51.444;10.560;2024-02-14T00:48:47;3.78;;;2.42;;
82505;SDS011;72144;51.444;10.560;2024-02-14T00:51:12;3.70;;;2.42;;
82505;SDS011;72144;51.444;10.560;2024-02-14T00:53:37;2.25;;;1.45;;
82505;SDS011;72144;51.444;10.560;2024-02-14T00:56:03;3.45;;;1.70;;
82505;SDS011;72144;51.444;10.560;2024-02-14T00:58:29;4.22;;;2.22;;
82505;SDS011;72144;51.444;10.560;2024-02-14T01:00:54;6.35;;;2.35;;
82505;SDS011;72144;51.444;10.560;2024-02-14T01:03:19;4.80;;;1.90;;
82505;SDS011;72144;51.444;10.560;2024-02-14T01:05:45;4.55;;;2.67;;
82505;SDS011;72144;51.444;10.560;2024-02-14T01:08:12;4.75;;;2.60;;
82505;SDS011;72144;51.444;10.560;2024-02-14T01:10:37;5.07;;;2.50;;
82505;SDS011;72144;51.444;10.560;2024-02-14T01:13:03;4.30;;;2.38;;
82505;SDS011;72144;51.444;10.560;2024-02-14T01:15:28;3.97;;;2.20;;
82505;SDS011;72144;51.444;10.560;2024-02-14T01:17:54;4.93;;;2.20;;
82505;SDS011;72144;51.444;10.560;2024-02-14T01:20:19;1.83;;;1.30;;
82505;SDS011;72144;51.444;10.560;2024-02-14T01:22:45;9.45;;;2.33;;
82505;SDS011;72144;51.444;10.560;2024-02-14T01:25:11;2.05;;;1.00;;
82505;SDS011;72144;51.444;10.560;2024-02-14T01:27:37;5.22;;;1.67;;
82505;SDS011;72144;51.444;10.560;2024-02-14T01:30:02;3.72;;;1.63;;
82505;SDS011;72144;51.444;10.560;2024-02-14T01:32:29;2.90;;;1.40;;
82505;SDS011;72144;51.444;10.560;2024-02-14T01:34:55;1.95;;;1.23;;
82505;SDS011;72144;51.444;10.560;2024-02-14T01:37:20;6.13;;;2.60;;
82505;SDS011;72144;51.444;10.560;2024-02-14T01:39:46;4.05;;;2.60;;
82505;SDS011;72144;51.444;10.560;2024-02-14T01:42:11;4.85;;;2.00;;
82505;SDS011;72144;51.444;10.560;2024-02-14T01:44:36;3.17;;;1.90;;
82505;SDS011;72144;51.444;10.560;2024-02-14T01:47:02;3.13;;;1.45;;
82505;SDS011;72144;51.444;10.560;2024-02-14T01:49:28;3.65;;;1.85;;
82505;SDS011;72144;51.444;10.560;2024-02-14T01:51:55;1.80;;;1.38;;
82505;SDS011;72144;51.444;10.560;2024-02-14T01:54:24;1.45;;;1.00;;
82505;SDS011;72144;51.444;10.560;2024-02-14T01:56:51;4.80;;;2.38;;
82505;SDS011;72144;51.444;10.560;2024-02-14T01:59:17;1.17;;;0.90;;
82505;SDS011;72144;51.444;10.560;2024-02-14T02:01:43;4.28;;;2.03;;
82505;SDS011;72144;51.444;10.560;2024-02-14T02:04:09;3.22;;;1.70;;
82505;SDS011;72144;51.444;10.560;2024-02-14T02:06:34;4.22;;;1.65;;
82505;SDS011;72144;51.444;10.560;2024-02-14T02:09:00;3.25;;;1.45;;
82505;SDS011;72144;51.444;10.560;2024-02-14T02:11:26;3.33;;;1.58;;
82505;SDS011;72144;51.444;10.560;2024-02-14T02:13:51;2.97;;;1.55;;
82505;SDS011;72144;51.444;10.560;2024-02-14T02:16:17;1.38;;;1.00;;
82505;SDS011;72144;51.444;10.560;2024-02-14T02:18:44;2.20;;;1.52;;
82505;SDS011;72144;51.444;10.560;2024-02-14T02:21:10;2.58;;;1.23;;
82505;SDS011;72144;51.444;10.560;2024-02-14T02:23:38;1.88;;;1.42;;
82505;SDS011;72144;51.444;10.560;2024-02-14T02:26:06;3.30;;;1.27;;
82505;SDS011;72144;51.444;10.560;2024-02-14T02:28:32;3.55;;;1.35;;
82505;SDS011;72144;51.444;10.560;2024-02-14T02:30:57;2.13;;;1.05;;
82505;SDS011;72144;51.444;10.560;2024-02-14T02:33:22;3.92;;;1.40;;
82505;SDS011;72144;51.444;10.560;2024-02-14T02:35:48;2.25;;;1.05;;
82505;SDS011;72144;51.444;10.560;2024-02-14T02:38:15;1.75;;;1.20;;
82505;SDS011;72144;51.444;10.560;2024-02-14T02:40:44;2.72;;;1.45;;
82505;SDS011;72144;51.444;10.560;2024-02-14T02:43:10;2.97;;;1.33;;
82505;SDS011;72144;51.444;10.560;2024-02-14T02:45:35;3.92;;;1.38;;
82505;SDS011;72144;51.444;10.560;2024-02-14T02:48:01;3.45;;;1.58;;
82505;SDS011;72144;51.444;10.560;2024-02-14T02:50:27;1.90;;;1.23;;
82505;SDS011;72144;51.444;10.560;2024-02-14T02:52:52;3.13;;;1.80;;
82505;SDS011;72144;51.444;10.560;2024-02-14T02:55:19;4.47;;;1.40;;
82505;SDS011;72144;51.444;10.560;2024-02-14T02:57:45;1.80;;;1.40;;
82505;SDS011;72144;51.444;10.560;2024-02-14T03:00:10;1.88;;;1.33;;
82505;SDS011;72144;51.444;10.560;2024-02-14T03:02:41;1.98;;;1.13;;
82505;SDS011;72144;51.444;10.560;2024-02-14T03:05:09;3.08;;;1.38;;
82505;SDS011;72144;51.444;10.560;2024-02-14T03:07:42;2.60;;;1.35;;
82505;SDS011;72144;51.444;10.560;2024-02-14T03:10:10;2.30;;;1.30;;
82505;SDS011;72144;51.444;10.560;2024-02-14T03:12:39;3.20;;;1.23;;
82505;SDS011;72144;51.444;10.560;2024-02-14T03:15:04;2.28;;;1.08;;
82505;SDS011;72144;51.444;10.560;2024-02-14T03:17:30;2.92;;;1.35;;
82505;SDS011;72144;51.444;10.560;2024-02-14T03:19:56;3.28;;;1.27;;
82505;SDS011;72144;51.444;10.560;2024-02-14T03:22:21;1.98;;;1.20;;
82505;SDS011;72144;51.444;10.560;2024-02-14T03:24:47;3.95;;;1.40;;
82505;SDS011;72144;51.444;10.560;2024-02-14T03:27:12;2.33;;;1.40;;
82505;SDS011;72144;51.444;10.560;2024-02-14T03:29:38;2.47;;;1.63;;
82505;SDS011;72144;51.444;10.560;2024-02-14T03:32:04;4.35;;;1.25;;
82505;SDS011;72144;51.444;10.560;2024-02-14T03:34:30;3.22;;;1.00;;
82505;SDS011;72144;51.444;10.560;2024-02-14T03:36:58;2.60;;;1.17;;
82505;SDS011;72144;51.444;10.560;2024-02-14T03:39:25;2.00;;;1.20;;
82505;SDS011;72144;51.444;10.560;2024-02-14T03:41:51;1.75;;;1.10;;
82505;SDS011;72144;51.444;10.560;2024-02-14T03:44:17;2.45;;;1.00;;
82505;SDS011;72144;51.444;10.560;2024-02-14T03:46:43;2.55;;;1.08;;
82505;SDS011;72144;51.444;10.560;2024-02-14T03:49:08;4.90;;;1.33;;
82505;SDS011;72144;51.444;10.560;2024-02-14T03:51:34;2.40;;;1.23;;
82505;SDS011;72144;51.444;10.560;2024-02-14T03:53:59;1.70;;;0.75;;
82505;SDS011;72144;51.444;10.560;2024-02-14T03:56:24;2.88;;;0.90;;
82505;SDS011;72144;51.444;10.560;2024-02-14T03:58:51;2.47;;;1.17;;
82505;SDS011;72144;51.444;10.560;2024-02-14T04:01:16;1.15;;;0.70;;
82505;SDS011;72144;51.444;10.560;2024-02-14T04:03:42;1.00;;;0.85;;
82505;SDS011;72144;51.444;10.560;2024-02-14T04:06:07;1.90;;;1.10;;
82505;SDS011;72144;51.444;10.560;2024-02-14T04:08:33;4.20;;;1.10;;
82505;SDS011;72144;51.444;10.560;2024-02-14T04:10:58;4.03;;;1.40;;
82505;SDS011;72144;51.444;10.560;2024-02-14T04:13:24;2.05;;;1.13;;
82505;SDS011;72144;51.444;10.560;2024-02-14T04:15:49;3.47;;;1.15;;
82505;SDS011;72144;51.444;10.560;2024-02-14T04:18:14;2.22;;;1.20;;
82505;SDS011;72144;51.444;10.560;2024-02-14T04:20:42;2.22;;;1.23;;
82505;SDS011;72144;51.444;10.560;2024-02-14T04:23:09;3.08;;;1.30;;
82505;SDS011;72144;51.444;10.560;2024-02-14T04:25:36;3.25;;;1.23;;
82505;SDS011;72144;51.444;10.560;2024-02-14T04:28:04;2.65;;;1.10;;
82505;SDS011;72144;51.444;10.560;2024-02-14T04:30:30;2.72;;;1.10;;
82505;SDS011;72144;51.444;10.560;2024-02-14T04:32:55;2.33;;;1.58;;
82505;SDS011;72144;51.444;10.560;2024-02-14T04:35:21;2.80;;;0.95;;
82505;SDS011;72144;51.444;10.560;2024-02-14T04:37:47;1.20;;;0.90;;
82505;SDS011;72144;51.444;10.560;2024-02-14T04:40:14;1.60;;;1.20;;
82505;SDS011;72144;51.444;10.560;2024-02-14T04:42:40;2.15;;;0.98;;
82505;SDS011;72144;51.444;10.560;2024-02-14T04:45:07;2.38;;;0.98;;
82505;SDS011;72144;51.444;10.560;2024-02-14T04:47:33;1.80;;;1.17;;
82505;SDS011;72144;51.444;10.560;2024-02-14T04:49:58;2.33;;;1.15;;
82505;SDS011;72144;51.444;10.560;2024-02-14T04:52:25;1.25;;;0.93;;
82505;SDS011;72144;51.444;10.560;2024-02-14T04:54:50;2.50;;;0.93;;
82505;SDS011;72144;51.444;10.560;2024-02-14T04:57:15;2.30;;;1.15;;
82505;SDS011;72144;51.444;10.560;2024-02-14T04:59:41;1.05;;;0.70;;
82505;SDS011;72144;51.444;10.560;2024-02-14T05:02:06;1.92;;;1.00;;
82505;SDS011;72144;51.444;10.560;2024-02-14T05:04:32;2.58;;;0.90;;
82505;SDS011;72144;51.444;10.560;2024-02-14T05:07:00;2.38;;;1.20;;
82505;SDS011;72144;51.444;10.560;2024-02-14T05:09:25;3.42;;;0.90;;
82505;SDS011;72144;51.444;10.560;2024-02-14T05:11:51;3.50;;;1.17;;
82505;SDS011;72144;51.444;10.560;2024-02-14T05:14:16;2.58;;;1.30;;
82505;SDS011;72144;51.444;10.560;2024-02-14T05:16:41;2.35;;;1.30;;
82505;SDS011;72144;51.444;10.560;2024-02-14T05:19:07;2.85;;;1.40;;
82505;SDS011;72144;51.444;10.560;2024-02-14T05:21:32;1.58;;;0.98;;
82505;SDS011;72144;51.444;10.560;2024-02-14T05:23:57;2.63;;;1.00;;
82505;SDS011;72144;51.444;10.560;2024-02-14T05:26:23;1.73;;;0.90;;
82505;SDS011;72144;51.444;10.560;2024-02-14T05:28:48;2.72;;;1.10;;
82505;SDS011;72144;51.444;10.560;2024-02-14T05:31:14;2.60;;;1.25;;
82505;SDS011;72144;51.444;10.560;2024-02-14T05:33:40;4.80;;;1.33;;
82505;SDS011;72144;51.444;10.560;2024-02-14T05:36:05;1.27;;;1.08;;
82505;SDS011;72144;51.444;10.560;2024-02-14T05:38:31;2.65;;;1.10;;
82505;SDS011;72144;51.444;10.560;2024-02-14T05:40:58;2.55;;;1.40;;
82505;SDS011;72144;51.444;10.560;2024-02-14T05:43:24;1.40;;;1.10;;
82505;SDS011;72144;51.444;10.560;2024-02-14T05:45:49;2.53;;;1.20;;
82505;SDS011;72144;51.444;10.560;2024-02-14T05:48:14;2.70;;;1.20;;
82505;SDS011;72144;51.444;10.560;2024-02-14T05:50:40;4.07;;;1.35;;
82505;SDS011;72144;51.444;10.560;2024-02-14T05:53:05;3.65;;;1.27;;
82505;SDS011;72144;51.444;10.560;2024-02-14T05:55:31;1.52;;;1.10;;
82505;SDS011;72144;51.444;10.560;2024-02-14T05:57:57;3.15;;;1.30;;
82505;SDS011;72144;51.444;10.560;2024-02-14T06:00:24;2.75;;;1.00;;
82505;SDS011;72144;51.444;10.560;2024-02-14T06:02:50;2.00;;;1.50;;
82505;SDS011;72144;51.444;10.560;2024-02-14T06:05:16;2.05;;;1.20;;
82505;SDS011;72144;51.444;10.560;2024-02-14T06:07:42;3.55;;;1.33;;
82505;SDS011;72144;51.444;10.560;2024-02-14T06:10:10;3.08;;;1.42;;
82505;SDS011;72144;51.444;10.560;2024-02-14T06:12:36;1.77;;;1.25;;
82505;SDS011;72144;51.444;10.560;2024-02-14T06:15:01;2.47;;;1.20;;
82505;SDS011;72144;51.444;10.560;2024-02-14T06:17:27;5.00;;;1.77;;
82505;SDS011;72144;51.444;10.560;2024-02-14T06:19:53;2.83;;;1.35;;
82505;SDS011;72144;51.444;10.560;2024-02-14T06:22:18;3.50;;;1.15;;
82505;SDS011;72144;51.444;10.560;2024-02-14T06:24:45;2.45;;;1.48;;
82505;SDS011;72144;51.444;10.560;2024-02-14T06:27:13;2.55;;;1.20;;
82505;SDS011;72144;51.444;10.560;2024-02-14T06:29:41;3.55;;;1.10;;
82505;SDS011;72144;51.444;10.560;2024-02-14T06:32:11;2.25;;;1.20;;
82505;SDS011;72144;51.444;10.560;2024-02-14T06:34:38;1.63;;;1.13;;
82505;SDS011;72144;51.444;10.560;2024-02-14T06:37:04;3.03;;;1.50;;
82505;SDS011;72144;51.444;10.560;2024-02-14T06:39:29;2.25;;;1.30;;
82505;SDS011;72144;51.444;10.560;2024-02-14T06:41:55;3.10;;;1.27;;
82505;SDS011;72144;51.444;10.560;2024-02-14T06:44:22;1.60;;;1.25;;
82505;SDS011;72144;51.444;10.560;2024-02-14T06:46:48;1.35;;;0.98;;
82505;SDS011;72144;51.444;10.560;2024-02-14T06:49:13;2.38;;;1.40;;
82505;SDS011;72144;51.444;10.560;2024-02-14T06:51:38;2.45;;;1.38;;
82505;SDS011;72144;51.444;10.560;2024-02-14T06:54:04;2.03;;;1.33;;
82505;SDS011;72144;51.444;10.560;2024-02-14T06:56:30;2.80;;;1.27;;
82505;SDS011;72144;51.444;10.560;2024-02-14T06:58:56;3.80;;;1.90;;
82505;SDS011;72144;51.444;10.560;2024-02-14T07:01:25;3.58;;;1.60;;
82505;SDS011;72144;51.444;10.560;2024-02-14T07:03:51;3.17;;;1.30;;
82505;SDS011;72144;51.444;10.560;2024-02-14T07:06:18;3.00;;;1.58;;
82505;SDS011;72144;51.444;10.560;2024-02-14T07:08:43;5.13;;;1.40;;
82505;SDS011;72144;51.444;10.560;2024-02-14T07:11:09;3.83;;;1.42;;
82505;SDS011;72144;51.444;10.560;2024-02-14T07:13:34;3.40;;;1.75;;
82505;SDS011;72144;51.444;10.560;2024-02-14T07:16:00;3.80;;;2.00;;
82505;SDS011;72144;51.444;10.560;2024-02-14T07:18:25;3.63;;;1.65;;
82505;SDS011;72144;51.444;10.560;2024-02-14T07:20:51;3.80;;;1.58;;
82505;SDS011;72144;51.444;10.560;2024-02-14T07:23:18;3.00;;;1.40;;
82505;SDS011;72144;51.444;10.560;2024-02-14T07:25:44;2.65;;;1.58;;
82505;SDS011;72144;51.444;10.560;2024-02-14T07:28:10;4.00;;;1.90;;
82505;SDS011;72144;51.444;10.560;2024-02-14T07:30:35;2.72;;;1.70;;
82505;SDS011;72144;51.444;10.560;2024-02-14T07:33:01;3.45;;;1.58;;
82505;SDS011;72144;51.444;10.560;2024-02-14T07:35:26;1.98;;;1.38;;
82505;SDS011;72144;51.444;10.560;2024-02-14T07:37:52;3.40;;;1.75;;
82505;SDS011;72144;51.444;10.560;2024-02-14T07:40:17;2.63;;;2.10;;
82505;SDS011;72144;51.444;10.560;2024-02-14T07:42:43;3.10;;;1.92;;
82505;SDS011;72144;51.444;10.560;2024-02-14T07:45:08;2.50;;;1.73;;
82505;SDS011;72144;51.444;10.560;2024-02-14T07:47:34;3.47;;;1.70;;
82505;SDS011;72144;51.444;10.560;2024-02-14T07:49:59;2.70;;;1.75;;
82505;SDS011;72144;51.444;10.560;2024-02-14T07:52:25;2.83;;;1.80;;
82505;SDS011;72144;51.444;10.560;2024-02-14T07:54:53;2.97;;;1.52;;
82505;SDS011;72144;51.444;10.560;2024-02-14T07:57:20;3.17;;;1.52;;
82505;SDS011;72144;51.444;10.560;2024-02-14T07:59:47;5.20;;;1.60;;
82505;SDS011;72144;51.444;10.560;2024-02-14T08:02:12;4.80;;;1.60;;
82505;SDS011;72144;51.444;10.560;2024-02-14T08:04:37;5.57;;;1.80;;
82505;SDS011;72144;51.444;10.560;2024-02-14T08:07:03;4.38;;;1.90;;
82505;SDS011;72144;51.444;10.560;2024-02-14T08:09:29;2.75;;;1.73;;
82505;SDS011;72144;51.444;10.560;2024-02-14T08:11:54;3.60;;;1.63;;
82505;SDS011;72144;51.444;10.560;2024-02-14T08:14:20;3.70;;;1.60;;
82505;SDS011;72144;51.444;10.560;2024-02-14T08:16:45;3.92;;;1.60;;
82505;SDS011;72144;51.444;10.560;2024-02-14T08:19:10;3.28;;;1.70;;
82505;SDS011;72144;51.444;10.560;2024-02-14T08:21:36;3.00;;;1.52;;
82505;SDS011;72144;51.444;10.560;2024-02-14T08:24:01;2.58;;;1.73;;
82505;SDS011;72144;51.444;10.560;2024-02-14T08:26:27;3.58;;;1.75;;
82505;SDS011;72144;51.444;10.560;2024-02-14T08:28:52;4.07;;;1.80;;
82505;SDS011;72144;51.444;10.560;2024-02-14T08:31:19;4.55;;;1.77;;
82505;SDS011;72144;51.444;10.560;2024-02-14T08:33:45;4.20;;;1.55;;
82505;SDS011;72144;51.444;10.560;2024-02-14T08:36:10;2.97;;;1.45;;
82505;SDS011;72144;51.444;10.560;2024-02-14T08:38:35;3.42;;;1.77;;
82505;SDS011;72144;51.444;10.560;2024-02-14T08:41:01;4.60;;;2.10;;
82505;SDS011;72144;51.444;10.560;2024-02-14T08:43:27;2.40;;;1.30;;
82505;SDS011;72144;51.444;10.560;2024-02-14T08:45:56;4.20;;;1.55;;
82505;SDS011;72144;51.444;10.560;2024-02-14T08:48:22;3.05;;;1.58;;
82505;SDS011;72144;51.444;10.560;2024-02-14T08:50:48;3.20;;;1.98;;
82505;SDS011;72144;51.444;10.560;2024-02-14T08:53:13;1.40;;;1.10;;
82505;SDS011;72144;51.444;10.560;2024-02-14T08:55:39;4.40;;;1.90;;
82505;SDS011;72144;51.444;10.560;2024-02-14T08:58:05;3.42;;;1.77;;
82505;SDS011;72144;51.444;10.560;2024-02-14T09:00:31;2.85;;;1.73;;
82505;SDS011;72144;51.444;10.560;2024-02-14T09:02:56;4.30;;;2.00;;
82505;SDS011;72144;51.444;10.560;2024-02-14T09:05:25;2.95;;;1.55;;
82505;SDS011;72144;51.444;10.560;2024-02-14T09:07:50;3.45;;;2.15;;
82505;SDS011;72144;51.444;10.560;2024-02-14T09:10:16;3.15;;;1.73;;
82505;SDS011;72144;51.444;10.560;2024-02-14T09:12:41;3.97;;;1.90;;
82505;SDS011;72144;51.444;10.560;2024-02-14T09:15:07;4.82;;;1.80;;
82505;SDS011;72144;51.444;10.560;2024-02-14T09:17:33;3.97;;;1.88;;
82505;SDS011;72144;51.444;10.560;2024-02-14T09:19:59;4.30;;;2.00;;
82505;SDS011;72144;51.444;10.560;2024-02-14T09:22:24;3.95;;;1.67;;
82505;SDS011;72144;51.444;10.560;2024-02-14T09:24:50;2.85;;;1.52;;
82505;SDS011;72144;51.444;10.560;2024-02-14T09:27:15;2.70;;;1.98;;
82505;SDS011;72144;51.444;10.560;2024-02-14T09:29:41;3.08;;;1.67;;
82505;SDS011;72144;51.444;10.560;2024-02-14T09:32:07;2.90;;;1.70;;
82505;SDS011;72144;51.444;10.560;2024-02-14T09:34:33;3.10;;;1.50;;
82505;SDS011;72144;51.444;10.560;2024-02-14T09:36:59;2.65;;;1.42;;
82505;SDS011;72144;51.444;10.560;2024-02-14T09:39:24;2.22;;;1.67;;
82505;SDS011;72144;51.444;10.560;2024-02-14T09:41:54;2.25;;;1.40;;
82505;SDS011;72144;51.444;10.560;2024-02-14T09:44:24;2.85;;;1.70;;
82505;SDS011;72144;51.444;10.560;2024-02-14T09:46:53;4.55;;;1.77;;
82505;SDS011;72144;51.444;10.560;2024-02-14T09:49:20;4.00;;;1.60;;
82505;SDS011;72144;51.444;10.560;2024-02-14T09:51:46;3.75;;;1.52;;
82505;SDS011;72144;51.444;10.560;2024-02-14T09:54:14;2.50;;;1.45;;
82505;SDS011;72144;51.444;10.560;2024-02-14T09:56:40;2.92;;;1.73;;
82505;SDS011;72144;51.444;10.560;2024-02-14T09:59:05;2.45;;;1.50;;
82505;SDS011;72144;51.444;10.560;2024-02-14T10:01:31;3.03;;;1.60;;
82505;SDS011;72144;51.444;10.560;2024-02-14T10:03:56;3.58;;;1.67;;
82505;SDS011;72144;51.444;10.560;2024-02-14T10:06:22;2.47;;;1.65;;
82505;SDS011;72144;51.444;10.560;2024-02-14T10:08:50;3.60;;;1.63;;
82505;SDS011;72144;51.444;10.560;2024-02-14T10:11:16;2.47;;;1.77;;
82505;SDS011;72144;51.444;10.560;2024-02-14T10:13:48;5.22;;;1.60;;
82505;SDS011;72144;51.444;10.560;2024-02-14T10:16:15;2.00;;;1.60;;
82505;SDS011;72144;51.444;10.560;2024-02-14T10:18:41;2.63;;;1.80;;
82505;SDS011;72144;51.444;10.560;2024-02-14T10:21:08;3.10;;;1.58;;
82505;SDS011;72144;51.444;10.560;2024-02-14T10:23:33;3.80;;;1.98;;
82505;SDS011;72144;51.444;10.560;2024-02-14T10:25:59;3.00;;;2.30;;
82505;SDS011;72144;51.444;10.560;2024-02-14T10:28:24;4.18;;;1.90;;
82505;SDS011;72144;51.444;10.560;2024-02-14T10:30:50;3.83;;;1.50;;
82505;SDS011;72144;51.444;10.560;2024-02-14T10:33:16;2.80;;;1.70;;
82505;SDS011;72144;51.444;10.560;2024-02-14T10:35:42;3.38;;;1.77;;
82505;SDS011;72144;51.444;10.560;2024-02-14T10:38:08;2.30;;;1.48;;
82505;SDS011;72144;51.444;10.560;2024-02-14T10:40:35;3.20;;;1.67;;
82505;SDS011;72144;51.444;10.560;2024-02-14T10:43:03;3.47;;;1.58;;
82505;SDS011;72144;51.444;10.560;2024-02-14T10:45:30;3.08;;;2.20;;
82505;SDS011;72144;51.444;10.560;2024-02-14T10:47:56;1.98;;;1.40;;
82505;SDS011;72144;51.444;10.560;2024-02-14T10:50:22;2.95;;;1.80;;
82505;SDS011;72144;51.444;10.560;2024-02-14T10:52:49;2.80;;;1.38;;
82505;SDS011;72144;51.444;10.560;2024-02-14T10:55:18;2.85;;;1.35;;
82505;SDS011;72144;51.444;10.560;2024-02-14T10:57:48;2.20;;;1.50;;
82505;SDS011;72144;51.444;10.560;2024-02-14T11:00:15;3.60;;;2.00;;
82505;SDS011;72144;51.444;10.560;2024-02-14T11:02:43;4.03;;;1.70;;
82505;SDS011;72144;51.444;10.560;2024-02-14T11:05:12;3.83;;;1.40;;
82505;SDS011;72144;51.444;10.560;2024-02-14T11:07:48;3.65;;;1.70;;
82505;SDS011;72144;51.444;10.560;2024-02-14T11:10:18;3.42;;;1.75;;
82505;SDS011;72144;51.444;10.560;2024-02-14T11:12:46;4.20;;;1.45;;
82505;SDS011;72144;51.444;10.560;2024-02-14T11:15:19;2.33;;;1.55;;
82505;SDS011;72144;51.444;10.560;2024-02-14T11:17:46;3.15;;;1.67;;
82505;SDS011;72144;51.444;10.560;2024-02-14T11:20:15;3.03;;;2.10;;
82505;SDS011;72144;51.444;10.560;2024-02-14T11:25:29;2.42;;;1.40;;
82505;SDS011;72144;51.444;10.560;2024-02-14T11:27:56;3.03;;;1.95;;
82505;SDS011;72144;51.444;10.560;2024-02-14T11:30:29;3.20;;;1.50;;
82505;SDS011;72144;51.444;10.560;2024-02-14T11:33:06;2.70;;;1.45;;
82505;SDS011;72144;51.444;10.560;2024-02-14T11:35:41;3.22;;;1.70;;
82505;SDS011;72144;51.444;10.560;2024-02-14T11:38:07;3.45;;;2.00;;
82505;SDS011;72144;51.444;10.560;2024-02-14T11:40:34;3.75;;;2.03;;
82505;SDS011;72144;51.444;10.560;2024-02-14T11:43:00;4.65;;;2.03;;
82505;SDS011;72144;51.444;10.560;2024-02-14T11:45:26;2.35;;;1.67;;
82505;SDS011;72144;51.444;10.560;2024-02-14T11:47:52;2.72;;;1.88;;
82505;SDS011;72144;51.444;10.560;2024-02-14T11:50:17;2.72;;;1.48;;
82505;SDS011;72144;51.444;10.560;2024-02-14T11:52:43;2.83;;;1.70;;
82505;SDS011;72144;51.444;10.560;2024-02-14T11:55:09;5.72;;;2.10;;
82505;SDS011;72144;51.444;10.560;2024-02-14T11:57:38;2.55;;;1.60;;
82505;SDS011;72144;51.444;10.560;2024-02-14T12:00:03;2.35;;;1.63;;
82505;SDS011;72144;51.444;10.560;2024-02-14T12:02:29;3.38;;;2.03;;
82505;SDS011;72144;51.444;10.560;2024-02-14T12:04:55;2.88;;;1.60;;
82505;SDS011;72144;51.444;10.560;2024-02-14T12:07:22;3.47;;;1.67;;
82505;SDS011;72144;51.444;10.560;2024-02-14T12:09:48;1.85;;;1.60;;
82505;SDS011;72144;51.444;10.560;2024-02-14T12:12:14;4.25;;;1.95;;
82505;SDS011;72144;51.444;10.560;2024-02-14T12:14:42;3.60;;;1.50;;
82505;SDS011;72144;51.444;10.560;2024-02-14T12:17:10;2.72;;;1.90;;
82505;SDS011;72144;51.444;10.560;2024-02-14T12:19:35;4.22;;;2.00;;
82505;SDS011;72144;51.444;10.560;2024-02-14T12:22:08;3.67;;;1.65;;
82505;SDS011;72144;51.444;10.560;2024-02-14T12:24:36;5.68;;;1.85;;
82505;SDS011;72144;51.444;10.560;2024-02-14T12:27:04;3.80;;;2.00;;
82505;SDS011;72144;51.444;10.560;2024-02-14T12:29:29;3.35;;;2.10;;
82505;SDS011;72144;51.444;10.560;2024-02-14T12:32:03;3.58;;;2.00;;
82505;SDS011;72144;51.444;10.560;2024-02-14T12:34:32;5.35;;;2.17;;
82505;SDS011;72144;51.444;10.560;2024-02-14T12:36:58;4.75;;;2.10;;
82505;SDS011;72144;51.444;10.560;2024-02-14T12:39:25;5.22;;;2.42;;
82505;SDS011;72144;51.444;10.560;2024-02-14T12:41:54;2.95;;;1.73;;
82505;SDS011;72144;51.444;10.560;2024-02-14T12:44:21;2.97;;;1.85;;
82505;SDS011;72144;51.444;10.560;2024-02-14T12:46:46;4.85;;;2.00;;
82505;SDS011;72144;51.444;10.560;2024-02-14T12:49:12;3.47;;;2.15;;
82505;SDS011;72144;51.444;10.560;2024-02-14T12:51:37;4.70;;;2.03;;
82505;SDS011;72144;51.444;10.560;2024-02-14T12:54:03;4.82;;;2.85;;
82505;SDS011;72144;51.444;10.560;2024-02-14T12:56:30;4.43;;;2.22;;
82505;SDS011;72144;51.444;10.560;2024-02-14T12:58:56;5.07;;;2.40;;
82505;SDS011;72144;51.444;10.560;2024-02-14T13:01:22;3.95;;;2.20;;
82505;SDS011;72144;51.444;10.560;2024-02-14T13:03:47;3.25;;;2.20;;
82505;SDS011;72144;51.444;10.560;2024-02-14T13:06:13;4.25;;;2.05;;
82505;SDS011;72144;51.444;10.560;2024-02-14T13:08:41;4.35;;;2.40;;
82505;SDS011;72144;51.444;10.560;2024-02-14T13:11:06;2.78;;;1.67;;
82505;SDS011;72144;51.444;10.560;2024-02-14T13:13:33;4.25;;;2.05;;
82505;SDS011;72144;51.444;10.560;2024-02-14T13:15:59;2.28;;;1.60;;
82505;SDS011;72144;51.444;10.560;2024-02-14T13:18:25;4.28;;;1.67;;
82505;SDS011;72144;51.444;10.560;2024-02-14T13:20:50;4.47;;;1.95;;
82505;SDS011;72144;51.444;10.560;2024-02-14T13:23:22;2.58;;;1.48;;
82505;SDS011;72144;51.444;10.560;2024-02-14T13:25:48;2.55;;;1.60;;
82505;SDS011;72144;51.444;10.560;2024-02-14T13:28:14;2.65;;;1.92;;
82505;SDS011;72144;51.444;10.560;2024-02-14T13:30:39;2.47;;;1.70;;
82505;SDS011;72144;51.444;10.560;2024-02-14T13:33:05;2.90;;;1.77;;
82505;SDS011;72144;51.444;10.560;2024-02-14T13:35:30;2.65;;;1.77;;
82505;SDS011;72144;51.444;10.560;2024-02-14T13:37:56;3.15;;;1.92;;
82505;SDS011;72144;51.444;10.560;2024-02-14T13:40:23;2.42;;;1.50;;
82505;SDS011;72144;51.444;10.560;2024-02-14T13:42:48;4.55;;;1.80;;
82505;SDS011;72144;51.444;10.560;2024-02-14T13:45:14;3.30;;;1.60;;
82505;SDS011;72144;51.444;10.560;2024-02-14T13:47:41;2.03;;;1.50;;
82505;SDS011;72144;51.444;10.560;2024-02-14T13:50:11;2.63;;;1.52;;
82505;SDS011;72144;51.444;10.560;2024-02-14T13:52:37;2.25;;;1.38;;
82505;SDS011;72144;51.444;10.560;2024-02-14T13:55:03;2.42;;;1.50;;
82505;SDS011;72144;51.444;10.560;2024-02-14T13:57:30;4.40;;;1.98;;
82505;SDS011;72144;51.444;10.560;2024-02-14T14:00:05;3.88;;;2.17;;
82505;SDS011;72144;51.444;10.560;2024-02-14T14:02:34;3.40;;;1.70;;
82505;SDS011;72144;51.444;10.560;2024-02-14T14:05:02;2.47;;;1.80;;
82505;SDS011;72144;51.444;10.560;2024-02-14T14:07:28;6.00;;;1.98;;
82505;SDS011;72144;51.444;10.560;2024-02-14T14:09:54;4.07;;;1.80;;
82505;SDS011;72144;51.444;10.560;2024-02-14T14:12:19;2.20;;;1.38;;
82505;SDS011;72144;51.444;10.560;2024-02-14T14:14:45;4.18;;;2.10;;
82505;SDS011;72144;51.444;10.560;2024-02-14T14:17:10;1.70;;;1.38;;
82505;SDS011;72144;51.444;10.560;2024-02-14T14:19:35;3.42;;;1.92;;
82505;SDS011;72144;51.444;10.560;2024-02-14T14:22:01;3.60;;;1.98;;
82505;SDS011;72144;51.444;10.560;2024-02-14T14:24:27;2.63;;;1.58;;
82505;SDS011;72144;51.444;10.560;2024-02-14T14:26:54;1.88;;;1.35;;
82505;SDS011;72144;51.444;10.560;2024-02-14T14:29:19;3.50;;;1.45;;